Date,TemperatureHighF,TemperatureAvgF,TemperatureLowF,DewpointHighF,DewpointAvgF,DewpointLowF,HumidityHigh,HumidityAvg,HumidityLow,PressureMaxIn,PressureMinIn,WindSpeedMaxMPH,WindSpeedAvgMPH,GustSpeedMaxMPH,PrecipitationSumIn
2013-2-1,21,4,-11,-100,-100,-100,0,0,100,0.00,40.00,0,-999,0,0.00
2013-2-2,22,18,14,-100,-100,-100,0,0,100,0.00,40.00,0,-999,0,0.00
2013-2-3,34,24,12,-100,-100,-100,0,0,100,0.00,40.00,0,-999,0,0.00
2013-2-4,30,24,14,-100,-100,-100,0,0,100,0.00,40.00,0,-999,0,0.00
2013-2-5,40,30,16,-100,-100,-100,0,0,100,0.00,40.00,0,-999,0,0.00
2013-2-6,41,31,19,-100,-100,-100,0,0,100,0.00,40.00,0,-999,0,0.00
2013-2-7,36,31,25,-100,-100,-100,0,0,100,0.00,40.00,0,-999,0,0.00
2013-2-8,26,23,22,-100,-100,-100,0,0,100,0.00,40.00,0,-999,0,0.00
2013-2-9,32,26,22,-100,-100,-100,0,0,100,0.00,40.00,0,-999,0,0.00
2013-2-10,52,35,29,-100,-100,-100,0,0,100,0.00,40.00,0,-999,0,0.00
2013-2-11,29,27,24,-100,-100,-100,0,0,100,0.00,40.00,0,-999,0,0.00
2013-2-12,44,30,20,-100,-100,-100,0,0,100,0.00,40.00,0,-999,0,0.00
2013-2-13,51,35,21,-100,-100,-100,0,0,100,0.00,40.00,0,-999,0,0.00
2013-2-14,43,35,30,-100,-100,-100,0,0,100,0.00,40.00,0,-999,0,0.00
2013-2-15,25,19,11,-100,-100,-100,0,0,100,0.00,40.00,0,-999,0,0.00
2013-2-16,32,24,7,-100,-100,-100,0,0,100,0.00,40.00,0,-999,0,0.00
2013-2-17,43,36,14,-100,-100,-100,0,0,100,0.00,40.00,0,-999,0,0.00
2013-2-18,42,30,12,-100,-100,-100,0,0,100,0.00,40.00,0,-999,0,0.00
2013-2-19,18,11,6,-100,-100,-100,0,0,100,0.00,40.00,0,-999,0,0.00
2013-2-20,18,8,-4,-100,-100,-100,0,0,100,0.00,40.00,0,-999,0,0.00
2013-2-21,21,17,10,-100,-100,-100,0,0,100,0.00,40.00,0,-999,0,0.00
2013-2-22,25,20,16,-100,-100,-100,0,0,100,0.00,40.00,0,-999,0,0.00
2013-2-23,29,21,7,-100,-100,-100,0,0,100,0.00,40.00,0,-999,0,0.00
2013-2-24,42,26,7,-100,-100,-100,0,0,100,0.00,40.00,0,-999,0,0.00
2013-2-25,39,31,21,-100,-100,-100,0,0,100,0.00,40.00,0,-999,0,0.00
2013-2-26,32,29,25,-100,-100,-100,0,0,100,0.00,40.00,0,-999,0,0.00
2013-2-27,29,26,22,-100,-100,-100,0,0,100,0.00,40.00,0,-999,0,0.00
2013-2-28,32,24,19,-100,-100,-100,0,0,100,0.00,40.00,0,-999,0,0.00